createdAt,value
2023-01-18T00:04:17.039Z,0.80
2023-01-18T00:09:18.846Z,0.80
2023-01-18T00:14:20.725Z,0.80
2023-01-18T00:19:22.871Z,1.00
2023-01-18T00:24:27.817Z,1.20
2023-01-18T00:29:31.141Z,1.30
2023-01-18T00:34:32.983Z,1.40
2023-01-18T00:39:34.894Z,1.50
2023-01-18T00:44:36.680Z,1.60
2023-01-18T00:49:38.917Z,1.70
2023-01-18T00:54:40.677Z,1.80
2023-01-18T00:59:43.628Z,1.70
2023-01-18T01:05:05.610Z,1.70
2023-01-18T01:10:09.127Z,1.70
2023-01-18T01:15:31.119Z,1.70
2023-01-18T01:20:51.202Z,1.80
2023-01-18T01:26:09.765Z,1.90
2023-01-18T01:31:16.182Z,1.90
2023-01-18T01:36:21.402Z,2.00
2023-01-18T01:41:28.854Z,2.10
2023-01-18T01:47:09.476Z,2.20
2023-01-18T01:52:28.038Z,2.00
2023-01-18T01:57:35.939Z,2.00
2023-01-18T02:02:39.312Z,2.00
2023-01-18T02:07:41.376Z,2.10
2023-01-18T02:12:46.399Z,2.10
2023-01-18T02:18:16.223Z,2.20
2023-01-18T02:24:00.539Z,2.20
2023-01-18T02:29:12.551Z,2.30
2023-01-18T02:34:37.292Z,2.30
2023-01-18T02:39:49.923Z,2.30
2023-01-18T02:45:10.114Z,2.40
2023-01-18T02:50:20.048Z,2.40
2023-01-18T02:55:39.749Z,2.40
2023-01-18T03:00:47.405Z,2.50
2023-01-18T03:05:55.914Z,2.40
2023-01-18T03:11:05.858Z,2.50
2023-01-18T03:16:14.307Z,2.50
2023-01-18T03:21:16.204Z,2.50
2023-01-18T03:26:20.838Z,2.60
2023-01-18T03:32:19.052Z,2.60
2023-01-18T03:37:37.825Z,2.60
2023-01-18T03:42:58.065Z,2.60
2023-01-18T03:48:01.266Z,2.60
2023-01-18T03:53:09.550Z,2.50
2023-01-18T03:58:15.069Z,2.60
2023-01-18T04:03:16.860Z,2.50
2023-01-18T04:08:21.902Z,2.60
2023-01-18T04:13:24.942Z,2.50
2023-01-18T04:18:26.653Z,2.50
2023-01-18T04:23:28.530Z,2.50
2023-01-18T04:28:35.849Z,2.50
2023-01-18T04:33:39.060Z,2.50
2023-01-18T04:38:40.803Z,2.50
2023-01-18T04:43:42.503Z,2.50
2023-01-18T04:48:44.248Z,2.50
2023-01-18T04:53:48.043Z,2.50
2023-01-18T04:58:53.427Z,2.40
2023-01-18T05:03:56.877Z,2.40
2023-01-18T05:08:58.572Z,2.50
2023-01-18T05:14:01.768Z,2.40
2023-01-18T05:19:04.794Z,2.30
2023-01-18T05:24:06.904Z,2.20
2023-01-18T05:29:08.647Z,2.20
2023-01-18T05:34:11.834Z,2.10
2023-01-18T05:39:14.372Z,2.10
2023-01-18T05:44:16.154Z,2.10
2023-01-18T05:49:17.915Z,2.00
2023-01-18T05:54:20.029Z,2.00
2023-01-18T05:59:21.839Z,2.00
2023-01-18T06:04:23.659Z,2.00
2023-01-18T06:09:25.439Z,2.00
2023-01-18T06:14:27.149Z,2.10
2023-01-18T06:19:29.040Z,2.10
2023-01-18T06:24:30.774Z,2.20
2023-01-18T06:29:32.532Z,2.10
2023-01-18T06:34:34.394Z,2.30
2023-01-18T06:39:36.169Z,2.30
2023-01-18T06:44:37.937Z,2.30
2023-01-18T06:49:40.154Z,2.30
2023-01-18T06:54:44.730Z,2.40
2023-01-18T06:59:46.415Z,2.40
2023-01-18T07:04:48.342Z,2.40
2023-01-18T07:09:50.139Z,2.40
2023-01-18T07:14:51.868Z,2.40
2023-01-18T07:19:53.590Z,2.40
2023-01-18T07:24:55.354Z,2.40
2023-01-18T07:29:57.285Z,2.30
2023-01-18T07:34:59.582Z,2.50
2023-01-18T07:40:01.959Z,2.50
2023-01-18T07:45:05.741Z,2.30
2023-01-18T07:50:09.770Z,2.20
2023-01-18T07:55:11.634Z,2.20
2023-01-18T08:00:14.781Z,2.20
2023-01-18T08:05:20.087Z,2.20
2023-01-18T08:10:24.811Z,2.10
2023-01-18T08:15:26.508Z,2.10
2023-01-18T08:20:28.710Z,2.10
2023-01-18T08:25:33.400Z,2.10
2023-01-18T08:30:38.588Z,2.10
2023-01-18T08:35:42.900Z,2.00
2023-01-18T08:40:44.689Z,2.00
2023-01-18T08:45:50.464Z,2.00
2023-01-18T08:50:52.809Z,2.00
2023-01-18T08:55:56.994Z,2.00
2023-01-18T09:00:58.953Z,2.00
2023-01-18T09:06:01.333Z,2.10
2023-01-18T09:11:07.273Z,1.90
2023-01-18T09:16:13.193Z,1.90
2023-01-18T09:21:17.305Z,1.90
2023-01-18T09:26:21.051Z,1.80
2023-01-18T09:31:26.032Z,1.90
2023-01-18T09:36:27.974Z,1.90
2023-01-18T09:41:40.705Z,1.90
2023-01-18T09:46:44.034Z,2.00
2023-01-18T09:52:12.031Z,2.00
2023-01-18T09:58:02.484Z,2.10
2023-01-18T10:03:14.021Z,2.20
2023-01-18T10:08:20.891Z,2.20
2023-01-18T10:13:41.593Z,2.30
2023-01-18T10:18:53.496Z,2.30
2023-01-18T10:24:01.462Z,2.50
2023-01-18T10:29:12.812Z,2.30
2023-01-18T10:34:27.514Z,2.50
2023-01-18T10:39:36.514Z,2.50
2023-01-18T10:44:38.267Z,2.50
2023-01-18T10:49:42.685Z,2.60
2023-01-18T10:55:07.614Z,2.50
2023-01-18T11:00:30.862Z,2.30
2023-01-18T11:05:39.915Z,2.20
2023-01-18T11:10:42.619Z,2.40
2023-01-18T11:15:45.845Z,2.60
2023-01-18T11:20:55.534Z,2.70
2023-01-18T11:26:08.489Z,2.60
2023-01-18T11:31:13.830Z,2.70
2023-01-18T11:36:16.720Z,2.60
2023-01-18T11:41:21.373Z,3.10
2023-01-18T11:46:36.599Z,2.80
2023-01-18T11:51:51.443Z,2.80
2023-01-18T11:57:02.849Z,2.70
2023-01-18T12:02:31.435Z,2.70
2023-01-18T12:07:51.265Z,2.80
2023-01-18T12:13:21.119Z,3.00
2023-01-18T12:18:38.568Z,3.40
2023-01-18T12:23:59.200Z,2.90
2023-01-18T12:29:10.657Z,2.80
2023-01-18T12:34:17.937Z,2.60
2023-01-18T12:39:47.763Z,2.60
2023-01-18T12:45:05.921Z,3.10
2023-01-18T12:50:27.774Z,3.10
2023-01-18T12:55:33.690Z,3.00
2023-01-18T13:00:37.476Z,3.10
2023-01-18T13:05:58.678Z,3.30
2023-01-18T13:11:26.211Z,3.20
2023-01-18T13:16:33.959Z,3.20
2023-01-18T13:21:48.104Z,3.20
2023-01-18T13:26:50.148Z,3.60
2023-01-18T13:32:04.764Z,3.80
2023-01-18T13:37:15.050Z,3.90
2023-01-18T13:42:24.641Z,3.70
2023-01-18T13:47:45.826Z,3.80
2023-01-18T13:53:13.756Z,3.90
2023-01-18T13:58:30.738Z,3.80
2023-01-18T14:03:47.080Z,3.80
2023-01-18T14:08:52.694Z,3.90
2023-01-18T14:13:54.489Z,3.60
2023-01-18T14:19:03.596Z,3.80
2023-01-18T14:24:17.586Z,3.70
2023-01-18T14:29:39.514Z,3.40
2023-01-18T14:34:42.448Z,3.60
2023-01-18T14:39:44.216Z,3.60
2023-01-18T14:44:57.875Z,3.50
2023-01-18T14:50:05.020Z,3.60
2023-01-18T14:55:22.255Z,3.50
2023-01-18T15:00:24.848Z,3.40
2023-01-18T15:05:30.176Z,3.50
2023-01-18T15:10:32.623Z,3.40
2023-01-18T15:15:42.382Z,3.30
2023-01-18T15:21:04.960Z,3.20
2023-01-18T15:26:06.819Z,3.00
2023-01-18T15:31:14.709Z,2.80
2023-01-18T15:36:16.894Z,2.70
2023-01-18T15:41:18.784Z,2.70
2023-01-18T15:46:20.587Z,2.50
2023-01-18T15:51:42.809Z,2.40
2023-01-18T15:56:45.889Z,2.40
2023-01-18T16:02:09.729Z,2.50
2023-01-18T16:07:29.781Z,2.30
2023-01-18T16:12:36.951Z,2.30
2023-01-18T16:17:38.871Z,2.30
2023-01-18T16:22:40.952Z,2.30
2023-01-18T16:27:55.065Z,2.20
2023-01-18T16:33:10.058Z,2.20
2023-01-18T16:38:18.361Z,2.20
2023-01-18T16:43:24.444Z,2.20
2023-01-18T16:48:28.218Z,2.30
2023-01-18T16:53:30.187Z,2.40
2023-01-18T16:58:34.046Z,2.40
2023-01-18T17:03:36.167Z,2.50
2023-01-18T17:08:37.962Z,2.50
2023-01-18T17:13:40.784Z,2.50
2023-01-18T17:18:43.100Z,2.50
2023-01-18T17:23:45.324Z,2.50
2023-01-18T17:28:47.096Z,2.60
2023-01-18T17:33:48.827Z,2.60
2023-01-18T17:38:50.899Z,2.60
2023-01-18T17:43:53.642Z,2.60
2023-01-18T17:48:55.487Z,2.50
2023-01-18T17:53:59.830Z,2.60
2023-01-18T17:59:03.101Z,2.60
2023-01-18T18:04:04.948Z,2.50
2023-01-18T18:09:06.859Z,2.50
2023-01-18T18:14:08.545Z,2.40
2023-01-18T18:19:13.260Z,2.40
2023-01-18T18:24:15.119Z,2.30
2023-01-18T18:29:17.566Z,2.30
2023-01-18T18:34:19.510Z,2.30
2023-01-18T18:39:21.495Z,2.40
2023-01-18T18:44:23.603Z,2.40
2023-01-18T18:49:25.792Z,2.40
2023-01-18T18:54:28.059Z,2.50
2023-01-18T18:59:30.041Z,2.40
2023-01-18T19:04:31.963Z,2.30
2023-01-18T19:09:34.303Z,2.20
2023-01-18T19:14:36.098Z,2.20
2023-01-18T19:19:37.901Z,2.10
2023-01-18T19:24:39.777Z,2.10
2023-01-18T19:29:41.545Z,2.10
2023-01-18T19:34:43.499Z,2.00
2023-01-18T19:39:46.135Z,1.90
2023-01-18T19:44:48.637Z,1.80
2023-01-18T19:49:51.321Z,1.70
2023-01-18T19:54:53.144Z,1.60
2023-01-18T19:59:54.962Z,1.50
2023-01-18T20:04:57.735Z,1.30
2023-01-18T20:09:59.534Z,1.20
2023-01-18T20:15:01.866Z,1.20
2023-01-18T20:20:04.682Z,1.10
2023-01-18T20:25:06.861Z,1.00
2023-01-18T20:30:09.169Z,0.90
2023-01-18T20:35:11.838Z,0.80
2023-01-18T20:40:15.191Z,0.80
2023-01-18T20:45:17.059Z,0.70
2023-01-18T20:50:23.227Z,0.70
2023-01-18T20:55:25.363Z,0.60
2023-01-18T21:00:27.148Z,0.50
2023-01-18T21:05:28.985Z,0.50
2023-01-18T21:10:38.642Z,0.40
2023-01-18T21:15:41.873Z,0.30
2023-01-18T21:20:43.721Z,0.30
2023-01-18T21:25:59.765Z,0.30
2023-01-18T21:31:01.958Z,0.30
2023-01-18T21:36:09.226Z,0.20
2023-01-18T21:41:30.507Z,0.20
2023-01-18T21:46:34.379Z,0.10
2023-01-18T21:51:54.608Z,0.00
2023-01-18T21:56:56.535Z,0.00
2023-01-18T22:01:58.353Z,-0.10
2023-01-18T22:07:00.770Z,0.00
2023-01-18T22:12:02.527Z,-0.20
2023-01-18T22:17:04.323Z,-0.20
2023-01-18T22:22:06.035Z,-0.30
2023-01-18T22:27:07.996Z,-0.30
2023-01-18T22:32:09.764Z,-0.40
2023-01-18T22:37:11.468Z,-0.40
2023-01-18T22:42:13.191Z,-0.50
2023-01-18T22:47:14.969Z,-0.50
2023-01-18T22:52:16.755Z,-0.60
2023-01-18T22:57:18.512Z,-0.60
2023-01-18T23:02:20.336Z,-0.70
2023-01-18T23:07:22.165Z,-0.70
2023-01-18T23:12:23.899Z,-0.80
2023-01-18T23:17:43.285Z,-0.80
2023-01-18T23:22:45.732Z,-0.80
2023-01-18T23:27:47.440Z,-0.90
2023-01-18T23:32:50.607Z,-0.90
2023-01-18T23:37:52.312Z,-0.90
2023-01-18T23:43:12.994Z,-0.90
2023-01-18T23:48:35.653Z,-0.90
2023-01-18T23:53:56.224Z,-0.90
2023-01-18T23:58:58.322Z,-0.90
